sensor_id;sensor_type;location;lat;lon;timestamp;temperature;humidity
69944;DHT22;57257;48.408;-4.498;2022-08-03T00:02:11;21.85;67.08
69944;DHT22;57257;48.408;-4.498;2022-08-03T00:04:36;21.81;67.04
69944;DHT22;57257;48.408;-4.498;2022-08-03T00:07:01;21.78;67.10
69944;DHT22;57257;48.408;-4.498;2022-08-03T00:09:27;21.71;67.32
69944;DHT22;57257;48.408;-4.498;2022-08-03T00:11:52;21.68;67.44
69944;DHT22;57257;48.408;-4.498;2022-08-03T00:14:18;21.67;67.50
69944;DHT22;57257;48.408;-4.498;2022-08-03T00:16:43;21.67;67.61
69944;DHT22;57257;48.408;-4.498;2022-08-03T00:19:08;21.71;67.54
69944;DHT22;57257;48.408;-4.498;2022-08-03T00:21:34;21.75;67.49
69944;DHT22;57257;48.408;-4.498;2022-08-03T00:23:59;21.74;67.45
69944;DHT22;57257;48.408;-4.498;2022-08-03T00:26:25;21.75;67.44
69944;DHT22;57257;48.408;-4.498;2022-08-03T00:28:50;21.71;67.30
69944;DHT22;57257;48.408;-4.498;2022-08-03T00:31:16;21.64;67.64
69944;DHT22;57257;48.408;-4.498;2022-08-03T00:33:41;21.67;67.74
69944;DHT22;57257;48.408;-4.498;2022-08-03T00:36:06;21.64;67.72
69944;DHT22;57257;48.408;-4.498;2022-08-03T00:38:32;21.64;67.80
69944;DHT22;57257;48.408;-4.498;2022-08-03T00:40:57;21.65;67.68
69944;DHT22;57257;48.408;-4.498;2022-08-03T00:43:26;21.58;67.83
69944;DHT22;57257;48.408;-4.498;2022-08-03T00:45:52;21.58;67.72
69944;DHT22;57257;48.408;-4.498;2022-08-03T00:48:18;21.60;67.77
69944;DHT22;57257;48.408;-4.498;2022-08-03T00:50:44;21.57;67.95
69944;DHT22;57257;48.408;-4.498;2022-08-03T00:53:10;21.57;68.13
69944;DHT22;57257;48.408;-4.498;2022-08-03T00:55:37;21.58;68.03
69944;DHT22;57257;48.408;-4.498;2022-08-03T00:58:02;21.54;68.12
69944;DHT22;57257;48.408;-4.498;2022-08-03T01:00:33;21.57;68.07
69944;DHT22;57257;48.408;-4.498;2022-08-03T01:03:01;21.60;68.22
69944;DHT22;57257;48.408;-4.498;2022-08-03T01:05:27;21.58;67.95
69944;DHT22;57257;48.408;-4.498;2022-08-03T01:08:24;21.51;68.26
69944;DHT22;57257;48.408;-4.498;2022-08-03T01:11:05;21.48;68.35
69944;DHT22;57257;48.408;-4.498;2022-08-03T01:14:20;21.47;68.50
69944;DHT22;57257;48.408;-4.498;2022-08-03T01:17:03;21.47;68.39
69944;DHT22;57257;48.408;-4.498;2022-08-03T01:19:49;21.48;68.56
69944;DHT22;57257;48.408;-4.498;2022-08-03T01:25:35;21.53;68.47
69944;DHT22;57257;48.408;-4.498;2022-08-03T01:28:55;21.50;68.67
69944;DHT22;57257;48.408;-4.498;2022-08-03T01:31:18;21.51;68.66
69944;DHT22;57257;48.408;-4.498;2022-08-03T01:33:51;21.53;68.76
69944;DHT22;57257;48.408;-4.498;2022-08-03T01:36:22;21.58;68.71
69944;DHT22;57257;48.408;-4.498;2022-08-03T01:38:53;21.57;68.75
69944;DHT22;57257;48.408;-4.498;2022-08-03T01:41:23;21.62;68.64
69944;DHT22;57257;48.408;-4.498;2022-08-03T01:43:50;21.60;68.58
69944;DHT22;57257;48.408;-4.498;2022-08-03T01:46:18;21.54;68.70
69944;DHT22;57257;48.408;-4.498;2022-08-03T01:48:46;21.54;68.81
69944;DHT22;57257;48.408;-4.498;2022-08-03T01:51:14;21.53;68.94
69944;DHT22;57257;48.408;-4.498;2022-08-03T01:53:40;21.55;68.85
69944;DHT22;57257;48.408;-4.498;2022-08-03T01:56:09;21.57;68.94
69944;DHT22;57257;48.408;-4.498;2022-08-03T01:58:36;21.58;68.98
69944;DHT22;57257;48.408;-4.498;2022-08-03T02:01:02;21.61;68.94
69944;DHT22;57257;48.408;-4.498;2022-08-03T02:03:31;21.62;68.87
69944;DHT22;57257;48.408;-4.498;2022-08-03T02:05:59;21.67;68.70
69944;DHT22;57257;48.408;-4.498;2022-08-03T02:08:25;21.68;68.66
69944;DHT22;57257;48.408;-4.498;2022-08-03T02:10:54;21.70;68.59
69944;DHT22;57257;48.408;-4.498;2022-08-03T02:13:23;21.73;68.40
69944;DHT22;57257;48.408;-4.498;2022-08-03T02:15:49;21.73;68.47
69944;DHT22;57257;48.408;-4.498;2022-08-03T02:18:17;21.73;68.49
69944;DHT22;57257;48.408;-4.498;2022-08-03T02:20:44;21.71;68.36
69944;DHT22;57257;48.408;-4.498;2022-08-03T02:23:10;21.71;68.31
69944;DHT22;57257;48.408;-4.498;2022-08-03T02:25:42;21.68;68.35
69944;DHT22;57257;48.408;-4.498;2022-08-03T02:28:27;21.68;68.28
69944;DHT22;57257;48.408;-4.498;2022-08-03T02:30:54;21.67;68.26
69944;DHT22;57257;48.408;-4.498;2022-08-03T02:33:29;21.65;68.40
69944;DHT22;57257;48.408;-4.498;2022-08-03T02:35:57;21.70;68.38
69944;DHT22;57257;48.408;-4.498;2022-08-03T02:38:30;21.68;68.30
69944;DHT22;57257;48.408;-4.498;2022-08-03T02:40:57;21.64;68.37
69944;DHT22;57257;48.408;-4.498;2022-08-03T02:43:24;21.64;68.46
69944;DHT22;57257;48.408;-4.498;2022-08-03T02:45:52;21.67;68.41
69944;DHT22;57257;48.408;-4.498;2022-08-03T02:48:21;21.68;68.37
69944;DHT22;57257;48.408;-4.498;2022-08-03T02:50:50;21.71;68.19
69944;DHT22;57257;48.408;-4.498;2022-08-03T02:53:18;21.70;68.27
69944;DHT22;57257;48.408;-4.498;2022-08-03T02:55:46;21.73;68.13
69944;DHT22;57257;48.408;-4.498;2022-08-03T02:58:13;21.68;68.20
69944;DHT22;57257;48.408;-4.498;2022-08-03T03:00:39;21.68;68.20
69944;DHT22;57257;48.408;-4.498;2022-08-03T03:03:05;21.70;68.16
69944;DHT22;57257;48.408;-4.498;2022-08-03T03:05:32;21.71;68.09
69944;DHT22;57257;48.408;-4.498;2022-08-03T03:07:59;21.71;67.99
69944;DHT22;57257;48.408;-4.498;2022-08-03T03:10:25;21.74;67.81
69944;DHT22;57257;48.408;-4.498;2022-08-03T03:12:56;21.67;67.87
69944;DHT22;57257;48.408;-4.498;2022-08-03T03:15:26;21.65;67.96
69944;DHT22;57257;48.408;-4.498;2022-08-03T03:17:52;21.64;67.92
69944;DHT22;57257;48.408;-4.498;2022-08-03T03:20:20;21.57;68.08
69944;DHT22;57257;48.408;-4.498;2022-08-03T03:22:47;21.54;68.19
69944;DHT22;57257;48.408;-4.498;2022-08-03T03:25:14;21.53;68.17
69944;DHT22;57257;48.408;-4.498;2022-08-03T03:27:40;21.53;67.98
69944;DHT22;57257;48.408;-4.498;2022-08-03T03:30:06;21.53;67.96
69944;DHT22;57257;48.408;-4.498;2022-08-03T03:32:32;21.51;67.92
69944;DHT22;57257;48.408;-4.498;2022-08-03T03:34:58;21.47;67.91
69944;DHT22;57257;48.408;-4.498;2022-08-03T03:37:25;21.47;67.93
69944;DHT22;57257;48.408;-4.498;2022-08-03T03:39:53;21.47;68.03
69944;DHT22;57257;48.408;-4.498;2022-08-03T03:42:18;21.46;67.99
69944;DHT22;57257;48.408;-4.498;2022-08-03T03:44:44;21.47;67.92
69944;DHT22;57257;48.408;-4.498;2022-08-03T03:47:10;21.47;67.93
69944;DHT22;57257;48.408;-4.498;2022-08-03T03:49:36;21.44;67.96
69944;DHT22;57257;48.408;-4.498;2022-08-03T03:52:01;21.43;67.98
69944;DHT22;57257;48.408;-4.498;2022-08-03T03:54:41;21.43;67.99
69944;DHT22;57257;48.408;-4.498;2022-08-03T03:57:07;21.41;68.10
69944;DHT22;57257;48.408;-4.498;2022-08-03T03:59:32;21.41;68.09
69944;DHT22;57257;48.408;-4.498;2022-08-03T04:01:58;21.46;68.05
69944;DHT22;57257;48.408;-4.498;2022-08-03T04:04:24;21.46;68.03
69944;DHT22;57257;48.408;-4.498;2022-08-03T04:07:07;21.48;67.98
69944;DHT22;57257;48.408;-4.498;2022-08-03T04:09:52;21.54;67.90
69944;DHT22;57257;48.408;-4.498;2022-08-03T04:12:37;21.54;67.70
69944;DHT22;57257;48.408;-4.498;2022-08-03T04:15:05;21.54;67.62
69944;DHT22;57257;48.408;-4.498;2022-08-03T04:17:31;21.53;67.66
69944;DHT22;57257;48.408;-4.498;2022-08-03T04:19:57;21.48;67.69
69944;DHT22;57257;48.408;-4.498;2022-08-03T04:22:28;21.44;67.79
69944;DHT22;57257;48.408;-4.498;2022-08-03T04:25:00;21.44;67.77
69944;DHT22;57257;48.408;-4.498;2022-08-03T04:27:32;21.46;67.72
69944;DHT22;57257;48.408;-4.498;2022-08-03T04:30:02;21.43;67.72
69944;DHT22;57257;48.408;-4.498;2022-08-03T04:32:29;21.46;67.68
69944;DHT22;57257;48.408;-4.498;2022-08-03T04:34:55;21.41;67.66
69944;DHT22;57257;48.408;-4.498;2022-08-03T04:37:29;21.37;67.76
69944;DHT22;57257;48.408;-4.498;2022-08-03T04:40:00;21.34;67.74
69944;DHT22;57257;48.408;-4.498;2022-08-03T04:42:27;21.36;67.65
69944;DHT22;57257;48.408;-4.498;2022-08-03T04:44:54;21.36;67.71
69944;DHT22;57257;48.408;-4.498;2022-08-03T04:47:21;21.37;67.70
69944;DHT22;57257;48.408;-4.498;2022-08-03T04:49:47;21.38;67.59
69944;DHT22;57257;48.408;-4.498;2022-08-03T04:52:12;21.37;67.61
69944;DHT22;57257;48.408;-4.498;2022-08-03T04:54:42;21.34;67.58
69944;DHT22;57257;48.408;-4.498;2022-08-03T04:57:09;21.30;67.63
69944;DHT22;57257;48.408;-4.498;2022-08-03T04:59:35;21.34;67.61
69944;DHT22;57257;48.408;-4.498;2022-08-03T05:02:00;21.33;67.59
69944;DHT22;57257;48.408;-4.498;2022-08-03T05:04:26;21.31;67.53
69944;DHT22;57257;48.408;-4.498;2022-08-03T05:06:51;21.24;67.82
69944;DHT22;57257;48.408;-4.498;2022-08-03T05:09:17;21.23;67.81
69944;DHT22;57257;48.408;-4.498;2022-08-03T05:11:42;21.14;67.81
69944;DHT22;57257;48.408;-4.498;2022-08-03T05:14:07;21.14;67.88
69944;DHT22;57257;48.408;-4.498;2022-08-03T05:16:33;21.19;67.89
69944;DHT22;57257;48.408;-4.498;2022-08-03T05:18:58;21.20;67.80
69944;DHT22;57257;48.408;-4.498;2022-08-03T05:21:24;21.17;67.75
69944;DHT22;57257;48.408;-4.498;2022-08-03T05:23:49;21.13;67.91
69944;DHT22;57257;48.408;-4.498;2022-08-03T05:26:14;21.13;68.06
69944;DHT22;57257;48.408;-4.498;2022-08-03T05:28:40;21.16;68.05
69944;DHT22;57257;48.408;-4.498;2022-08-03T05:31:06;21.26;67.99
69944;DHT22;57257;48.408;-4.498;2022-08-03T05:33:31;21.28;67.77
69944;DHT22;57257;48.408;-4.498;2022-08-03T05:35:57;21.33;67.72
69944;DHT22;57257;48.408;-4.498;2022-08-03T05:38:23;21.33;67.62
69944;DHT22;57257;48.408;-4.498;2022-08-03T05:40:49;21.37;67.59
69944;DHT22;57257;48.408;-4.498;2022-08-03T05:43:14;21.40;67.48
69944;DHT22;57257;48.408;-4.498;2022-08-03T05:45:40;21.38;67.37
69944;DHT22;57257;48.408;-4.498;2022-08-03T05:48:06;21.36;67.42
69944;DHT22;57257;48.408;-4.498;2022-08-03T05:50:31;21.40;67.46
69944;DHT22;57257;48.408;-4.498;2022-08-03T05:52:57;21.43;67.50
69944;DHT22;57257;48.408;-4.498;2022-08-03T05:55:22;21.47;67.34
69944;DHT22;57257;48.408;-4.498;2022-08-03T05:57:48;21.48;67.28
69944;DHT22;57257;48.408;-4.498;2022-08-03T06:00:14;21.51;67.20
69944;DHT22;57257;48.408;-4.498;2022-08-03T06:02:40;21.58;67.13
69944;DHT22;57257;48.408;-4.498;2022-08-03T06:05:06;21.57;66.95
69944;DHT22;57257;48.408;-4.498;2022-08-03T06:07:32;21.61;66.97
69944;DHT22;57257;48.408;-4.498;2022-08-03T06:09:58;21.64;66.95
69944;DHT22;57257;48.408;-4.498;2022-08-03T06:12:26;21.67;66.79
69944;DHT22;57257;48.408;-4.498;2022-08-03T06:14:51;21.70;66.84
69944;DHT22;57257;48.408;-4.498;2022-08-03T06:17:16;21.71;66.78
69944;DHT22;57257;48.408;-4.498;2022-08-03T06:19:42;21.73;66.72
69944;DHT22;57257;48.408;-4.498;2022-08-03T06:22:07;21.74;66.61
69944;DHT22;57257;48.408;-4.498;2022-08-03T06:24:33;21.71;66.49
69944;DHT22;57257;48.408;-4.498;2022-08-03T06:26:58;21.65;66.61
69944;DHT22;57257;48.408;-4.498;2022-08-03T06:29:23;21.71;66.67
69944;DHT22;57257;48.408;-4.498;2022-08-03T06:31:49;21.73;66.60
69944;DHT22;57257;48.408;-4.498;2022-08-03T06:34:14;21.70;66.56
69944;DHT22;57257;48.408;-4.498;2022-08-03T06:36:40;21.70;66.63
69944;DHT22;57257;48.408;-4.498;2022-08-03T06:39:05;21.68;66.80
69944;DHT22;57257;48.408;-4.498;2022-08-03T06:41:31;21.74;66.64
69944;DHT22;57257;48.408;-4.498;2022-08-03T06:43:57;21.75;66.50
69944;DHT22;57257;48.408;-4.498;2022-08-03T06:46:23;21.77;66.56
69944;DHT22;57257;48.408;-4.498;2022-08-03T06:48:48;21.80;66.49
69944;DHT22;57257;48.408;-4.498;2022-08-03T06:51:13;21.82;66.46
69944;DHT22;57257;48.408;-4.498;2022-08-03T06:53:39;21.88;66.41
69944;DHT22;57257;48.408;-4.498;2022-08-03T06:56:06;21.91;66.48
69944;DHT22;57257;48.408;-4.498;2022-08-03T06:58:32;21.97;66.32
69944;DHT22;57257;48.408;-4.498;2022-08-03T07:00:57;21.97;66.45
69944;DHT22;57257;48.408;-4.498;2022-08-03T07:03:23;22.08;66.32
69944;DHT22;57257;48.408;-4.498;2022-08-03T07:05:48;22.12;66.10
69944;DHT22;57257;48.408;-4.498;2022-08-03T07:08:15;22.19;65.91
69944;DHT22;57257;48.408;-4.498;2022-08-03T07:10:41;22.19;65.74
69944;DHT22;57257;48.408;-4.498;2022-08-03T07:13:07;22.12;65.64
69944;DHT22;57257;48.408;-4.498;2022-08-03T07:15:33;22.05;65.66
69944;DHT22;57257;48.408;-4.498;2022-08-03T07:17:59;21.95;65.81
69944;DHT22;57257;48.408;-4.498;2022-08-03T07:20:24;21.90;65.94
69944;DHT22;57257;48.408;-4.498;2022-08-03T07:22:50;21.82;66.22
69944;DHT22;57257;48.408;-4.498;2022-08-03T07:25:15;21.80;66.43
69944;DHT22;57257;48.408;-4.498;2022-08-03T07:27:45;21.81;66.45
69944;DHT22;57257;48.408;-4.498;2022-08-03T07:30:11;21.84;66.50
69944;DHT22;57257;48.408;-4.498;2022-08-03T07:32:37;21.88;66.48
69944;DHT22;57257;48.408;-4.498;2022-08-03T07:35:04;21.91;66.44
69944;DHT22;57257;48.408;-4.498;2022-08-03T07:37:30;21.94;66.40
69944;DHT22;57257;48.408;-4.498;2022-08-03T07:39:56;22.02;66.31
69944;DHT22;57257;48.408;-4.498;2022-08-03T07:42:22;22.08;66.23
69944;DHT22;57257;48.408;-4.498;2022-08-03T07:44:48;22.15;66.01
69944;DHT22;57257;48.408;-4.498;2022-08-03T07:47:24;22.18;65.99
69944;DHT22;57257;48.408;-4.498;2022-08-03T07:49:50;22.22;66.08
69944;DHT22;57257;48.408;-4.498;2022-08-03T07:52:15;22.29;65.95
69944;DHT22;57257;48.408;-4.498;2022-08-03T07:55:00;22.39;65.59
69944;DHT22;57257;48.408;-4.498;2022-08-03T07:57:25;22.38;65.53
69944;DHT22;57257;48.408;-4.498;2022-08-03T07:59:51;22.39;65.20
69944;DHT22;57257;48.408;-4.498;2022-08-03T08:02:16;22.32;65.34
69944;DHT22;57257;48.408;-4.498;2022-08-03T08:04:42;22.33;65.59
69944;DHT22;57257;48.408;-4.498;2022-08-03T08:07:07;22.38;65.67
69944;DHT22;57257;48.408;-4.498;2022-08-03T08:09:33;22.55;65.59
69944;DHT22;57257;48.408;-4.498;2022-08-03T08:11:59;22.67;65.41
69944;DHT22;57257;48.408;-4.498;2022-08-03T08:14:24;22.77;65.11
69944;DHT22;57257;48.408;-4.498;2022-08-03T08:16:50;22.86;65.04
69944;DHT22;57257;48.408;-4.498;2022-08-03T08:19:16;22.96;64.67
69944;DHT22;57257;48.408;-4.498;2022-08-03T08:21:44;23.00;64.52
69944;DHT22;57257;48.408;-4.498;2022-08-03T08:24:10;23.04;64.31
69944;DHT22;57257;48.408;-4.498;2022-08-03T08:26:36;23.08;64.30
69944;DHT22;57257;48.408;-4.498;2022-08-03T08:29:02;23.17;64.07
69944;DHT22;57257;48.408;-4.498;2022-08-03T08:31:28;23.17;63.92
69944;DHT22;57257;48.408;-4.498;2022-08-03T08:33:53;23.21;64.07
69944;DHT22;57257;48.408;-4.498;2022-08-03T08:36:19;23.31;63.56
69944;DHT22;57257;48.408;-4.498;2022-08-03T08:38:44;23.33;63.59
69944;DHT22;57257;48.408;-4.498;2022-08-03T08:41:11;23.43;63.36
69944;DHT22;57257;48.408;-4.498;2022-08-03T08:43:37;23.53;62.66
69944;DHT22;57257;48.408;-4.498;2022-08-03T08:46:02;23.62;62.72
69944;DHT22;57257;48.408;-4.498;2022-08-03T08:48:29;23.74;62.70
69944;DHT22;57257;48.408;-4.498;2022-08-03T08:50:56;23.89;62.72
69944;DHT22;57257;48.408;-4.498;2022-08-03T08:53:30;24.04;62.27
69944;DHT22;57257;48.408;-4.498;2022-08-03T08:55:59;24.08;61.90
69944;DHT22;57257;48.408;-4.498;2022-08-03T08:58:28;24.02;62.08
69944;DHT22;57257;48.408;-4.498;2022-08-03T09:00:54;24.01;62.13
69944;DHT22;57257;48.408;-4.498;2022-08-03T09:03:20;24.05;61.94
69944;DHT22;57257;48.408;-4.498;2022-08-03T09:05:45;24.08;61.84
69944;DHT22;57257;48.408;-4.498;2022-08-03T09:08:11;24.13;61.94
69944;DHT22;57257;48.408;-4.498;2022-08-03T09:10:37;24.28;61.69
69944;DHT22;57257;48.408;-4.498;2022-08-03T09:13:02;24.35;61.59
69944;DHT22;57257;48.408;-4.498;2022-08-03T09:15:30;24.48;61.61
69944;DHT22;57257;48.408;-4.498;2022-08-03T09:17:57;24.53;61.13
69944;DHT22;57257;48.408;-4.498;2022-08-03T09:20:25;24.55;61.06
69944;DHT22;57257;48.408;-4.498;2022-08-03T09:23:26;24.55;61.11
69944;DHT22;57257;48.408;-4.498;2022-08-03T09:25:44;24.59;60.85
69944;DHT22;57257;48.408;-4.498;2022-08-03T09:28:13;24.65;60.83
69944;DHT22;57257;48.408;-4.498;2022-08-03T09:30:41;24.77;60.68
69944;DHT22;57257;48.408;-4.498;2022-08-03T09:33:11;24.91;60.46
69944;DHT22;57257;48.408;-4.498;2022-08-03T09:35:45;25.00;60.34
69944;DHT22;57257;48.408;-4.498;2022-08-03T09:38:14;25.07;60.18
69944;DHT22;57257;48.408;-4.498;2022-08-03T09:40:40;25.10;59.58
69944;DHT22;57257;48.408;-4.498;2022-08-03T09:43:06;24.97;59.59
69944;DHT22;57257;48.408;-4.498;2022-08-03T09:45:36;24.90;59.82
69944;DHT22;57257;48.408;-4.498;2022-08-03T09:50:53;25.06;59.46
69944;DHT22;57257;48.408;-4.498;2022-08-03T09:53:19;25.13;59.40
69944;DHT22;57257;48.408;-4.498;2022-08-03T09:55:55;25.14;59.13
69944;DHT22;57257;48.408;-4.498;2022-08-03T09:58:22;25.20;59.36
69944;DHT22;57257;48.408;-4.498;2022-08-03T10:03:21;25.50;58.56
69944;DHT22;57257;48.408;-4.498;2022-08-03T10:05:47;25.47;58.61
69944;DHT22;57257;48.408;-4.498;2022-08-03T10:08:18;25.48;58.53
69944;DHT22;57257;48.408;-4.498;2022-08-03T10:10:46;25.60;58.18
69944;DHT22;57257;48.408;-4.498;2022-08-03T10:13:13;25.68;58.33
69944;DHT22;57257;48.408;-4.498;2022-08-03T10:15:39;25.89;58.03
69944;DHT22;57257;48.408;-4.498;2022-08-03T10:18:05;26.19;57.81
69944;DHT22;57257;48.408;-4.498;2022-08-03T10:20:36;26.40;57.60
69944;DHT22;57257;48.408;-4.498;2022-08-03T10:23:03;26.59;57.20
69944;DHT22;57257;48.408;-4.498;2022-08-03T10:25:30;26.73;56.50
69944;DHT22;57257;48.408;-4.498;2022-08-03T10:28:01;26.86;56.35
69944;DHT22;57257;48.408;-4.498;2022-08-03T10:30:31;27.04;55.48
69944;DHT22;57257;48.408;-4.498;2022-08-03T10:33:16;26.84;54.89
69944;DHT22;57257;48.408;-4.498;2022-08-03T10:35:43;26.73;55.79
69944;DHT22;57257;48.408;-4.498;2022-08-03T10:38:19;26.94;55.85
69944;DHT22;57257;48.408;-4.498;2022-08-03T10:40:49;27.17;55.42
69944;DHT22;57257;48.408;-4.498;2022-08-03T10:45:45;27.59;54.06
69944;DHT22;57257;48.408;-4.498;2022-08-03T10:48:12;27.50;53.74
69944;DHT22;57257;48.408;-4.498;2022-08-03T10:50:38;27.37;54.12
69944;DHT22;57257;48.408;-4.498;2022-08-03T10:53:05;27.35;54.56
69944;DHT22;57257;48.408;-4.498;2022-08-03T10:55:34;27.50;54.52
69944;DHT22;57257;48.408;-4.498;2022-08-03T11:01:10;27.37;53.78
69944;DHT22;57257;48.408;-4.498;2022-08-03T11:04:14;27.27;54.36
69944;DHT22;57257;48.408;-4.498;2022-08-03T11:06:40;27.40;54.69
69944;DHT22;57257;48.408;-4.498;2022-08-03T11:11:34;27.92;54.10
69944;DHT22;57257;48.408;-4.498;2022-08-03T11:14:02;28.09;53.37
69944;DHT22;57257;48.408;-4.498;2022-08-03T11:16:31;28.22;53.37
69944;DHT22;57257;48.408;-4.498;2022-08-03T11:19:04;28.19;52.59
69944;DHT22;57257;48.408;-4.498;2022-08-03T11:40:44;28.69;51.46
69944;DHT22;57257;48.408;-4.498;2022-08-03T11:45:59;28.70;51.72
69944;DHT22;57257;48.408;-4.498;2022-08-03T11:48:41;28.79;51.60
69944;DHT22;57257;48.408;-4.498;2022-08-03T11:51:26;28.96;51.87
69944;DHT22;57257;48.408;-4.498;2022-08-03T11:54:05;29.11;51.29
69944;DHT22;57257;48.408;-4.498;2022-08-03T11:56:45;29.06;51.26
69944;DHT22;57257;48.408;-4.498;2022-08-03T11:59:11;29.04;51.13
69944;DHT22;57257;48.408;-4.498;2022-08-03T12:01:37;28.96;51.55
69944;DHT22;57257;48.408;-4.498;2022-08-03T12:04:03;29.08;51.49
69944;DHT22;57257;48.408;-4.498;2022-08-03T12:06:29;29.15;51.34
69944;DHT22;57257;48.408;-4.498;2022-08-03T12:08:54;29.17;51.43
69944;DHT22;57257;48.408;-4.498;2022-08-03T12:11:20;29.08;51.28
69944;DHT22;57257;48.408;-4.498;2022-08-03T12:13:49;29.03;51.43
69944;DHT22;57257;48.408;-4.498;2022-08-03T12:16:22;28.90;51.62
69944;DHT22;57257;48.408;-4.498;2022-08-03T12:19:02;28.91;51.64
69944;DHT22;57257;48.408;-4.498;2022-08-03T12:21:29;28.99;51.80
69944;DHT22;57257;48.408;-4.498;2022-08-03T12:24:00;29.10;51.59
69944;DHT22;57257;48.408;-4.498;2022-08-03T12:26:30;29.14;51.68
69944;DHT22;57257;48.408;-4.498;2022-08-03T12:29:06;29.11;51.43
69944;DHT22;57257;48.408;-4.498;2022-08-03T12:31:31;29.08;51.81
69944;DHT22;57257;48.408;-4.498;2022-08-03T12:34:00;29.12;51.49
69944;DHT22;57257;48.408;-4.498;2022-08-03T12:36:31;29.12;51.67
69944;DHT22;57257;48.408;-4.498;2022-08-03T12:39:07;29.10;51.89
69944;DHT22;57257;48.408;-4.498;2022-08-03T12:41:35;29.01;51.56
69944;DHT22;57257;48.408;-4.498;2022-08-03T12:44:03;28.87;51.79
69944;DHT22;57257;48.408;-4.498;2022-08-03T12:46:34;28.83;51.85
69944;DHT22;57257;48.408;-4.498;2022-08-03T12:49:13;28.79;52.24
69944;DHT22;57257;48.408;-4.498;2022-08-03T12:54:18;28.93;52.20
69944;DHT22;57257;48.408;-4.498;2022-08-03T12:57:00;29.03;52.01
69944;DHT22;57257;48.408;-4.498;2022-08-03T12:59:28;29.00;51.93
69944;DHT22;57257;48.408;-4.498;2022-08-03T13:01:53;29.03;52.07
69944;DHT22;57257;48.408;-4.498;2022-08-03T13:07:03;29.20;51.91
69944;DHT22;57257;48.408;-4.498;2022-08-03T13:09:30;29.22;51.90
69944;DHT22;57257;48.408;-4.498;2022-08-03T13:12:09;29.14;51.68
69944;DHT22;57257;48.408;-4.498;2022-08-03T13:14:36;29.03;52.05
69944;DHT22;57257;48.408;-4.498;2022-08-03T13:17:01;29.06;52.18
69944;DHT22;57257;48.408;-4.498;2022-08-03T13:19:27;28.97;51.93
69944;DHT22;57257;48.408;-4.498;2022-08-03T13:21:52;28.89;52.23
69944;DHT22;57257;48.408;-4.498;2022-08-03T13:24:18;28.94;52.43
69944;DHT22;57257;48.408;-4.498;2022-08-03T13:26:43;29.04;52.31
69944;DHT22;57257;48.408;-4.498;2022-08-03T13:29:09;29.07;51.97
69944;DHT22;57257;48.408;-4.498;2022-08-03T13:31:34;29.06;52.30
69944;DHT22;57257;48.408;-4.498;2022-08-03T13:34:00;29.20;52.00
69944;DHT22;57257;48.408;-4.498;2022-08-03T13:36:25;29.34;51.23
69944;DHT22;57257;48.408;-4.498;2022-08-03T13:38:51;29.48;51.25
69944;DHT22;57257;48.408;-4.498;2022-08-03T13:41:17;29.62;51.13
69944;DHT22;57257;48.408;-4.498;2022-08-03T13:43:42;29.89;50.77
69944;DHT22;57257;48.408;-4.498;2022-08-03T13:46:08;29.99;50.29
69944;DHT22;57257;48.408;-4.498;2022-08-03T13:48:33;30.13;50.07
69944;DHT22;57257;48.408;-4.498;2022-08-03T13:50:59;30.19;49.20
69944;DHT22;57257;48.408;-4.498;2022-08-03T13:53:24;30.06;49.59
69944;DHT22;57257;48.408;-4.498;2022-08-03T13:55:49;29.99;49.46
69944;DHT22;57257;48.408;-4.498;2022-08-03T13:58:15;29.78;49.84
69944;DHT22;57257;48.408;-4.498;2022-08-03T14:00:40;29.65;50.12
69944;DHT22;57257;48.408;-4.498;2022-08-03T14:03:06;29.55;50.46
69944;DHT22;57257;48.408;-4.498;2022-08-03T14:05:32;29.45;50.53
69944;DHT22;57257;48.408;-4.498;2022-08-03T14:07:59;29.32;50.75
69944;DHT22;57257;48.408;-4.498;2022-08-03T14:10:28;29.32;50.77
69944;DHT22;57257;48.408;-4.498;2022-08-03T14:12:53;29.37;50.85
69944;DHT22;57257;48.408;-4.498;2022-08-03T14:15:20;29.39;50.88
69944;DHT22;57257;48.408;-4.498;2022-08-03T14:17:45;29.44;50.72
69944;DHT22;57257;48.408;-4.498;2022-08-03T14:20:11;29.39;50.95
69944;DHT22;57257;48.408;-4.498;2022-08-03T14:22:37;29.44;51.06
69944;DHT22;57257;48.408;-4.498;2022-08-03T14:25:03;29.44;51.17
69944;DHT22;57257;48.408;-4.498;2022-08-03T14:27:28;29.45;51.20
69944;DHT22;57257;48.408;-4.498;2022-08-03T14:29:54;29.61;51.05
69944;DHT22;57257;48.408;-4.498;2022-08-03T14:32:24;29.66;50.82
69944;DHT22;57257;48.408;-4.498;2022-08-03T14:34:49;29.68;50.79
69944;DHT22;57257;48.408;-4.498;2022-08-03T14:37:14;29.68;50.69
69944;DHT22;57257;48.408;-4.498;2022-08-03T14:39:40;29.65;51.19
69944;DHT22;57257;48.408;-4.498;2022-08-03T14:42:05;29.68;50.85
69944;DHT22;57257;48.408;-4.498;2022-08-03T14:44:31;29.64;50.93
69944;DHT22;57257;48.408;-4.498;2022-08-03T14:46:56;29.64;51.03
69944;DHT22;57257;48.408;-4.498;2022-08-03T14:49:22;29.65;50.93
69944;DHT22;57257;48.408;-4.498;2022-08-03T14:51:47;29.68;50.81
69944;DHT22;57257;48.408;-4.498;2022-08-03T14:54:13;29.66;50.93
69944;DHT22;57257;48.408;-4.498;2022-08-03T14:56:38;29.61;50.89
69944;DHT22;57257;48.408;-4.498;2022-08-03T14:59:04;29.44;50.99
69944;DHT22;57257;48.408;-4.498;2022-08-03T15:01:29;29.20;51.49
69944;DHT22;57257;48.408;-4.498;2022-08-03T15:03:54;28.97;51.89
69944;DHT22;57257;48.408;-4.498;2022-08-03T15:06:20;28.81;52.38
69944;DHT22;57257;48.408;-4.498;2022-08-03T15:08:45;28.71;52.66
69944;DHT22;57257;48.408;-4.498;2022-08-03T15:11:11;28.61;52.92
69944;DHT22;57257;48.408;-4.498;2022-08-03T15:13:36;28.56;53.14
69944;DHT22;57257;48.408;-4.498;2022-08-03T15:16:02;28.52;53.44
69944;DHT22;57257;48.408;-4.498;2022-08-03T15:18:27;28.52;53.40
69944;DHT22;57257;48.408;-4.498;2022-08-03T15:20:53;28.42;53.46
69944;DHT22;57257;48.408;-4.498;2022-08-03T15:23:18;28.31;53.67
69944;DHT22;57257;48.408;-4.498;2022-08-03T15:25:44;28.17;54.00
69944;DHT22;57257;48.408;-4.498;2022-08-03T15:28:10;28.06;54.33
69944;DHT22;57257;48.408;-4.498;2022-08-03T15:30:36;28.02;54.58
69944;DHT22;57257;48.408;-4.498;2022-08-03T15:33:02;28.09;54.53
69944;DHT22;57257;48.408;-4.498;2022-08-03T15:35:28;28.06;54.53
69944;DHT22;57257;48.408;-4.498;2022-08-03T15:37:53;27.95;54.73
69944;DHT22;57257;48.408;-4.498;2022-08-03T15:40:19;27.75;54.91
69944;DHT22;57257;48.408;-4.498;2022-08-03T15:42:44;27.59;55.27
69944;DHT22;57257;48.408;-4.498;2022-08-03T15:45:10;27.50;55.51
69944;DHT22;57257;48.408;-4.498;2022-08-03T15:47:35;27.45;55.79
69944;DHT22;57257;48.408;-4.498;2022-08-03T15:50:01;27.44;55.79
69944;DHT22;57257;48.408;-4.498;2022-08-03T15:52:26;27.37;56.07
69944;DHT22;57257;48.408;-4.498;2022-08-03T15:54:52;27.30;56.26
69944;DHT22;57257;48.408;-4.498;2022-08-03T15:57:17;27.33;56.42
69944;DHT22;57257;48.408;-4.498;2022-08-03T15:59:43;27.30;56.51
69944;DHT22;57257;48.408;-4.498;2022-08-03T16:02:08;27.26;56.55
69944;DHT22;57257;48.408;-4.498;2022-08-03T16:04:34;27.21;56.66